Terminal Aerodrome Forecast
Issued by NWS

Home | Current Version | Previous Version | Text Only | Print | Product List | Glossary On
Versions: 1 2 3 4 5 6 7 8 9 10 11 12 13 14 15 16 17 18 19 20 21 22 23 24 25 26 27 28 29 30 31 32 33 34 35 36 37 38 39 40 41 42 43 44
000
FTUS45 KBOU 281123
TAFAPA
TAF
KAPA 281123Z 2812/2912 VRB05KT P6SM SCT010 SCT120
      TEMPO 2812/2814 BKN010
     FM281400 VRB05KT P6SM SCT080 BKN120
     FM281900 11007KT P6SM VCTS SCT060CB BKN100
      TEMPO 2819/2822 VRB15G30KT -TSRA BKN060CB
     FM282300 15008KT P6SM VCSH SCT080 BKN120
     FM290200 18008KT P6SM SCT080 SCT120
     FM291000 21006KT P6SM VCSH SCT070 BKN120=

USA.gov is the U.S. government's official web portal to all federal, state and local government web resources and services.